Log in

NYSE:WESWestern Midstream Partners Institutional Ownership

$9.75
-0.17 (-1.71 %)
(As of 07/3/2020 04:00 PM ET)
Add
Compare
Today's Range
$9.56
Now: $9.75
$10.17
50-Day Range
$7.03
MA: $10.05
$12.51
52-Week Range
$2.90
Now: $9.75
$31.99
Volume1.51 million shs
Average Volume3.44 million shs
Market Capitalization$4.33 billion
P/E Ratio14.13
Dividend Yield12.76%
Beta3.96

Institutional Ownership

Institutional Ownership Changes (13F Filings) for Western Midstream Partners (NYSE:WES)

Institutional Ownership Percentage: 36.99%

Institutional Buying and Selling by Quarter


Western Midstream Partners (NYSE WES) Institutional Buying and Selling

Reporting DateHedge FundShares HeldMarket Value% of PortfolioQuarterly Change in SharesOwnership in Company
7/2/2020Nelson Van Denburg & Campbell Wealth Management Group LLC19,145$0.19M0.0%+123.4%0.004%
6/16/2020Royal Bank of Canada21,356$69K0.0%-77.4%0.005%
6/2/2020Guggenheim Capital LLC85,216$0.28M0.0%+20.1%0.019%
5/26/2020Morgan Stanley11,689,887$37.88M0.0%+217.8%2.633%
5/22/2020Clearbridge Investments LLC3,487,714$11.30M0.0%-39.6%0.786%
5/21/2020HighTower Advisors LLC38,787$0.13M0.0%-82.8%0.009%
5/18/2020Zimmer Partners LP4,439,749$14.39M0.3%+45.3%1.000%
5/18/2020Advisor Group Holdings Inc.20,679$67K0.0%N/A0.005%
5/15/2020CNH Partners LLC45,454$0.15M0.0%+97.6%0.010%
5/15/2020Jane Street Group LLC94,048$0.31M0.0%+3.7%0.021%
5/15/2020Invesco Ltd.17,266,103$55.94M0.0%+31.6%3.889%
5/15/2020Barings LLC691,660$2.24M0.1%N/A0.156%
5/15/2020Morgan Stanley11,689,887$37.88M0.0%+217.8%2.633%
5/15/2020Harvest Fund Advisors LLC3,629,627$11.76M0.2%-55.7%0.818%
5/15/2020Parametrica Management Ltd21,098$68K0.1%N/A0.005%
5/15/2020Chilton Capital Management LLC85,818$0.28M0.0%-2.6%0.019%
5/15/2020Kamunting Street Capital Management L.P.437,121$1.42M2.7%N/A0.098%
5/15/2020Cohen & Steers Inc.942,935$3.06M0.0%-53.6%0.212%
5/15/2020Silvercrest Asset Management Group LLC92,785$0.30M0.0%-24.5%0.021%
5/15/2020Rafferty Asset Management LLC142,088$0.46M0.0%+14.6%0.032%
5/14/2020Virtus ETF Advisers LLC83,040$0.27M0.1%-39.1%0.019%
5/14/2020Wells Fargo & Company MN340,189$1.10M0.0%-64.8%0.077%
5/14/2020Infrastructure Capital Advisors LLC896,901$2.91M2.8%N/A0.202%
5/14/2020Tortoise Capital Advisors L.L.C.10,048,918$32.56M0.6%-51.9%2.263%
5/14/2020Commonwealth of Pennsylvania Public School Empls Retrmt SYS755,532$2.45M0.1%-42.0%0.170%
5/14/2020Deutsche Bank AG251,938$0.82M0.0%-3.9%0.057%
5/14/2020M&T Bank Corp35,496$0.11M0.0%-76.8%0.008%
5/14/2020Requisite Capital Management LLC58,480$0.19M0.1%+25.5%0.013%
5/13/2020Parametric Portfolio Associates LLC1,213,047$3.93M0.0%+45.7%0.273%
5/13/2020Castleark Management LLC68,637$0.22M0.0%-50.5%0.015%
5/13/2020BNP Paribas Arbitrage SA18,031$58K0.0%-80.4%0.004%
5/13/2020US Bancorp DE19,715$64K0.0%+33.6%0.004%
5/12/2020Terril Brothers Inc.202,775$0.66M0.3%+236.7%0.046%
5/12/2020Vident Investment Advisory LLC107,800$0.35M0.0%N/A0.024%
5/12/2020Dividend Assets Capital LLC346,685$1.12M0.3%+9.0%0.078%
5/12/2020Citigroup Inc.2,887,366$9.36M0.0%+325.4%0.650%
5/12/2020Americana Partners LLC247,395$0.80M0.8%-3.1%0.056%
5/12/2020Quinn Opportunity Partners LLC20,000$65K0.0%N/A0.005%
5/12/2020American Financial Group Inc.35,000$0.11M0.0%+45.8%0.008%
5/12/2020Rockefeller Capital Management L.P.14,135$46K0.0%-19.1%0.003%
5/12/2020JPMorgan Chase & Co.4,106,355$13.31M0.0%+12.3%0.925%
5/11/2020Ensign Peak Advisors Inc129,044$0.42M0.0%N/A0.029%
5/11/2020NBW Capital LLC160,162$0.52M0.2%-6.4%0.036%
5/11/2020Blair William & Co. IL32,035$0.10M0.0%-73.8%0.007%
5/8/2020Northwestern Mutual Investment Management Company LLC71,266$0.23M0.0%-92.1%0.016%
5/8/2020RR Advisors LLC633,000$2.05M0.9%-70.9%0.143%
5/8/2020Heronetta Management L.P.322,891$1.05M1.2%+30.2%0.073%
5/8/2020Edge Capital Group LLC49,030$0.16M0.0%+107.4%0.011%
5/8/2020PNC Financial Services Group Inc.78,857$0.26M0.0%-24.1%0.018%
5/8/2020Cincinnati Insurance Co.60,140$0.20M0.0%-32.3%0.014%
5/8/2020Kayne Anderson Capital Advisors LP6,084,063$19.71M1.0%-26.7%1.370%
5/6/2020First Trust Advisors LP237,381$0.77M0.0%+59.0%0.053%
5/6/2020Alps Advisors Inc.26,085,702$84.52M1.3%+8.0%5.876%
5/5/2020Avalon Investment & Advisory46,614$0.15M0.0%+133.5%0.010%
5/5/2020Teacher Retirement System of Texas72,061$0.23M0.0%+7.6%0.016%
5/5/2020Aveo Capital Partners LLC33,995$0.11M0.1%+35.7%0.008%
5/5/2020Creative Planning83,129$0.27M0.0%+15.3%0.019%
5/5/2020Frontier Investment Mgmt Co.24,000$78K0.0%+83.0%0.005%
5/4/2020Cadence Capital Management LLC1,158,411$3.75M0.6%+62.4%0.261%
5/4/2020Summit Financial LLC11,557$37K0.0%-40.7%0.003%
5/2/2020SG Americas Securities LLC30,720$100K0.0%+26.9%0.007%
5/1/2020UBS Group AG5,281,213$17.11M0.0%-34.4%1.190%
4/29/2020Conning Inc.17,572$57K0.0%-57.2%0.004%
4/27/2020Sumitomo Mitsui Trust Holdings Inc.96,675$0.31M0.0%-38.7%0.022%
4/23/2020Pacer Advisors Inc.8,295$48K0.0%+73.0%0.002%
4/22/2020Deltec Asset Management LLC10,000$32K0.0%N/A0.002%
4/21/2020Raymond James & Associates89,176$0.29M0.0%-25.2%0.020%
4/21/2020Raymond James Financial Services Advisors Inc.244,648$0.79M0.0%+17.3%0.055%
4/21/2020Investors Asset Management of Georgia Inc. GA ADV12,365$40K0.0%N/A0.003%
4/21/2020Adams Asset Advisors LLC251,926$0.82M0.3%+10.9%0.057%
4/20/2020Lucas Capital Management89,593$0.29M0.4%+16.8%0.020%
4/20/2020Adams Asset Advisors LLC251,926$0.82M0.4%+10.9%0.057%
4/16/2020MAI Capital Management103,371$0.34M0.0%-12.6%0.023%
4/15/2020Baldwin Brothers Inc. MA14,913$48K0.0%+50.4%0.003%
4/10/2020Diversified Trust Co10,039$33K0.0%-44.9%0.002%
4/6/2020Chickasaw Capital Management LLC5,310,964$17.21M1.3%-5.7%1.196%
4/1/2020Nelson Van Denburg & Campbell Wealth Management Group LLC8,569$27K0.0%-30.0%0.002%
2/26/2020Sunbelt Securities Inc.2,500$12.31M0.1%N/A0.001%
2/21/2020Tortoise Capital Advisors L.L.C.20,879,174$411.11M2.6%-12.8%4.609%
2/20/2020Geode Capital Management LLC11,756$0.23M0.0%N/A0.003%
2/19/2020Tortoise Capital Advisors L.L.C.20,879,174$411.11M2.5%-12.8%4.609%
2/18/2020NBW Capital LLC171,063$3.37M1.0%-5.6%0.038%
2/17/2020Ladenburg Thalmann Financial Services Inc.19,293$0.40M0.0%+390.7%0.004%
2/14/2020Advisors Asset Management Inc.26,440$0.52M0.0%-2.6%0.006%
2/14/2020Jane Street Group LLC90,719$1.79M0.0%+414.8%0.020%
2/14/2020First Republic Investment Management Inc.264,241$5.20M0.0%-3.7%0.058%
2/14/2020Bank of America Corp DE2,311,719$45.52M0.0%-12.1%0.510%
2/14/2020Chilton Capital Management LLC88,131$1.74M0.1%-2.5%0.019%
2/14/2020Goldman Sachs Group Inc.12,830,112$252.63M0.1%-13.2%2.832%
2/14/2020Guggenheim Capital LLC70,934$1.40M0.0%-11.2%0.016%
2/14/2020UBS Group AG8,052,121$158.55M0.1%-10.0%1.777%
2/14/2020Brookfield Public Securities Group LLC2,834,228$55.81M0.6%-32.8%0.626%
2/14/2020Cohen & Steers Inc.2,031,490$40M0.1%+93.7%0.448%
2/14/2020Amundi Pioneer Asset Management Inc.377,251$7.43M0.0%+40.3%0.083%
2/13/2020Van ECK Associates Corp19,861$0.39M0.0%+10.9%0.004%
2/13/2020Americana Partners LLC255,208$5.03M2.8%N/A0.056%
2/13/2020Mariner LLC90,201$1.78M0.0%-7.7%0.020%
2/13/2020Virtus ETF Advisers LLC136,376$2.69M0.4%+38.5%0.030%
2/13/2020Stifel Financial Corp79,948$1.58M0.0%+18.7%0.018%
2/13/2020Blair William & Co. IL122,355$2.41M0.0%-15.7%0.027%
(Data available from 1/1/2016 forward)
This page was last updated on 7/4/2020 by MarketBeat.com Staff

30 Days of MarketBeat All Access for $1.00

Sign up for MarketBeat All Access to gain access to MarketBeat's full suite of research tools:

  • Best-in-Class Portfolio Monitoring

    View the latest news, buy/sell ratings, SEC filings and insider transactions for your stocks. Compare your portfolio performance to leading indices and get personalized stock ideas based on your portfolio.

  • Stock Ideas and Recommendations

    Get daily stock ideas top-performing Wall Street analysts. Get short term trading ideas from the MarketBeat Idea Engine. View which stocks are hot on social media with MarketBeat's trending stocks report.

  • Advanced Stock Screeners and Research Tools

    Identify stocks that meet your criteria using seven unique stock screeners. See what's happening in the market right now with MarketBeat's real-time news feed. Export data to Excel for your own analysis.

Start Your Risk-Free Trial Subscription Here

Enter your email address below to receive a concise daily summary of analysts' upgrades, downgrades and new coverage with MarketBeat.com's FREE daily email newsletter.